»·PEaware :: XOJ551 KSFO-KLAX

XOJ551 :: KSFO-KLAX

FLIGHT INFORMATION

Flight Status: Arrived
Operator:
XOJET
More flights by this operator :: More flights under this callsign
Pilot: Hassan P. (16390)
Aircraft: BOMBARDIER BD-100 CHALLENGER 300
(CL30)
More flights by this aircraft type
Origin: KSFO San Francisco Intl
United States
Destination: KLAX Los Angeles Intl
United States
More flights between these airports :: More routes between these airports
Route: +WESLA3 EBAYE BURGL IRNMN1
File this flight plan on PilotEdge
Remarks: have a good one!
Altitude:
(Current/Filed)
37,000ft
Speed:
(Current/Filed)
477kts
Departed: 05-May-18 03:45 PM
Arrived: 05-May-18 04:43 PM
Distance/Time
Traveled:
294nm/0:58
Distance/Time
To Go:
Arrived

Flight Plot

Page will automatically refresh every two minutes.

Flight plan parsing failed; only flown route is shown


Map Options




Map Legend


Flown Route
Filed Route
Departure Airport
Arrival Airport
Navaid (VOR, NDB)
Fix

Horizontal Profiles

Position Reports

Time Latitude Longitude Heading Altitude Ground
Speed
05-May-18 15:22 37.628809 -122.382621 139 18ft 0kts
05-May-18 15:23 37.628809 -122.382621 139 18ft 0kts
05-May-18 15:24 37.628809 -122.382621 139 18ft 0kts
05-May-18 15:25 37.628809 -122.382621 139 18ft 0kts
05-May-18 15:26 37.628809 -122.382621 139 18ft 0kts
05-May-18 15:27 37.628809 -122.382621 139 18ft 0kts
05-May-18 15:28 37.628809 -122.382621 139 18ft 0kts
05-May-18 15:29 37.628809 -122.382621 139 18ft 0kts
05-May-18 15:30 37.628809 -122.382621 139 18ft 0kts
05-May-18 15:31 37.628809 -122.382621 139 18ft 0kts
05-May-18 15:32 37.628809 -122.382621 139 18ft 0kts
05-May-18 15:33 37.627611 -122.382146 207 18ft 12kts
05-May-18 15:34 37.625232 -122.381334 118 18ft 21kts
05-May-18 15:35 37.622898 -122.375770 118 18ft 12kts
05-May-18 15:36 37.621000 -122.371243 118 18ft 16kts
05-May-18 15:37 37.619064 -122.366619 118 18ft 13kts
05-May-18 15:38 37.617378 -122.362609 117 18ft 10kts
05-May-18 15:39 37.615993 -122.359318 118 18ft 14kts
05-May-18 15:40 37.614542 -122.356749 184 18ft 0kts
05-May-18 15:41 37.614533 -122.356750 186 18ft 0kts
05-May-18 15:42 37.614533 -122.356750 186 18ft 0kts
05-May-18 15:43 37.613943 -122.358087 290 18ft 19kts
05-May-18 15:44 37.633470 -122.404876 296 1960ft 246kts
05-May-18 15:45 37.664584 -122.486000 273 2925ft 248kts
05-May-18 15:46 37.611551 -122.514856 173 5875ft 247kts
05-May-18 15:47 37.542286 -122.492506 166 8891ft 270kts
05-May-18 15:48 37.473380 -122.445203 138 11566ft 315kts
05-May-18 15:49 37.410883 -122.364942 137 15126ft 335kts
05-May-18 15:50 37.346156 -122.278540 137 18099ft 353kts
05-May-18 15:51 37.279544 -122.188767 138 21052ft 358kts
05-May-18 15:52 37.208966 -122.093657 139 24050ft 390kts
05-May-18 15:53 37.133477 -121.992054 139 27034ft 406kts
05-May-18 15:54 37.055728 -121.887765 140 29661ft 419kts
05-May-18 15:55 36.973969 -121.778487 139 31592ft 442kts
05-May-18 15:56 36.888204 -121.664169 139 33108ft 465kts
05-May-18 15:58 36.798367 -121.544837 139 34779ft 478kts
05-May-18 15:59 36.709679 -121.427407 139 37000ft 457kts
05-May-18 16:00 36.620648 -121.310095 140 37073ft 475kts
05-May-18 16:01 36.529904 -121.190782 140 37078ft 476kts
05-May-18 16:02 36.439565 -121.072639 140 37060ft 470kts
05-May-18 16:03 36.353574 -120.949868 136 37027ft 474kts
05-May-18 16:04 36.269602 -120.829458 136 37019ft 477kts
05-May-18 16:05 36.182442 -120.704946 136 37019ft 480kts
05-May-18 16:06 36.094859 -120.580292 136 37020ft 482kts
05-May-18 16:07 36.007003 -120.455716 136 37020ft 484kts
05-May-18 16:08 35.918935 -120.331286 137 37002ft 483kts
05-May-18 16:09 35.820489 -120.226776 153 37015ft 466kts
05-May-18 16:10 35.711292 -120.142293 154 37013ft 463kts
05-May-18 16:11 35.602099 -120.059559 154 37018ft 463kts
05-May-18 16:12 35.492559 -119.976983 154 37021ft 463kts
05-May-18 16:13 35.386902 -119.897647 154 37031ft 464kts
05-May-18 16:14 35.277811 -119.812875 149 36847ft 469kts
05-May-18 16:15 35.173809 -119.716482 148 33846ft 471kts
05-May-18 16:16 35.072233 -119.621965 148 31321ft 450kts
05-May-18 16:17 34.975253 -119.531963 147 29063ft 430kts
05-May-18 16:18 34.882952 -119.447539 146 27716ft 418kts
05-May-18 16:19 34.790624 -119.364824 146 25151ft 407kts
05-May-18 16:20 34.702572 -119.287067 147 22560ft 382kts
05-May-18 16:21 34.618983 -119.214393 147 19959ft 361kts
05-May-18 16:22 34.542225 -119.147550 146 18412ft 322kts
05-May-18 16:23 34.469639 -119.083411 145 16035ft 330kts
05-May-18 16:24 34.397135 -119.020161 145 14093ft 320kts
05-May-18 16:25 34.324915 -118.956714 144 14038ft 334kts
05-May-18 16:26 34.252273 -118.890808 143 14033ft 316kts
05-May-18 16:27 34.185888 -118.829909 143 13054ft 317kts
05-May-18 16:28 34.125566 -118.767493 138 11004ft 277kts
05-May-18 16:29 34.071605 -118.709038 138 9061ft 261kts
05-May-18 16:30 34.031507 -118.640218 100 8108ft 279kts
05-May-18 16:31 34.021058 -118.555094 98 7879ft 260kts
05-May-18 16:32 34.012673 -118.475960 98 6459ft 261kts
05-May-18 16:33 34.019912 -118.403742 81 5006ft 235kts
05-May-18 16:34 34.028829 -118.340174 82 5009ft 228kts
05-May-18 16:35 34.036598 -118.283729 82 5000ft 264kts
05-May-18 16:36 34.046202 -118.208109 97 4312ft 243kts
05-May-18 16:37 34.006710 -118.194778 234 4037ft 206kts
05-May-18 16:38 33.978515 -118.239017 236 2956ft 170kts
05-May-18 16:39 33.962923 -118.281008 256 1992ft 164kts
05-May-18 16:40 33.959797 -118.331735 260 1371ft 171kts
05-May-18 16:41 33.954328 -118.379648 262 564ft 150kts
05-May-18 16:42 33.950375 -118.418837 263 110ft 42kts
05-May-18 16:43 33.947663 -118.427564 204 109ft 17kts
05-May-18 16:44 33.946460 -118.427780 173 109ft 0kts
05-May-18 16:45 33.946460 -118.427780 173 109ft 0kts
05-May-18 16:46 33.946456 -118.427779 172 109ft 1kts
05-May-18 16:47 33.946610 -118.424512 82 109ft 13kts
05-May-18 16:48 33.947003 -118.420661 83 109ft 18kts
05-May-18 16:49 33.946527 -118.418179 173 109ft 0kts
05-May-18 16:50 33.945924 -118.418100 173 109ft 15kts
05-May-18 16:51 33.941289 -118.417413 173 109ft 13kts
05-May-18 16:52 33.937665 -118.416883 172 109ft 9kts
05-May-18 16:53 33.937003 -118.412744 169 109ft 12kts
05-May-18 16:54 33.933180 -118.411722 98 109ft 13kts
05-May-18 16:55 33.933604 -118.407373 83 109ft 13kts
05-May-18 16:56 33.933948 -118.402652 110 109ft 17kts

Navigation Log

Ident Type
Flight plan parsing failed, navigation log unavailable